sensor_id;sensor_type;location;lat;lon;timestamp;P1;durP1;ratioP1;P2;durP2;ratioP2
18796;SDS011;9526;52.612;13.300;2023-04-24T00:01:18;13.20;;;8.35;;
18796;SDS011;9526;52.612;13.300;2023-04-24T00:03:42;9.48;;;7.65;;
18796;SDS011;9526;52.612;13.300;2023-04-24T00:06:06;12.25;;;8.50;;
18796;SDS011;9526;52.612;13.300;2023-04-24T00:08:31;13.20;;;8.55;;
18796;SDS011;9526;52.612;13.300;2023-04-24T00:10:55;13.02;;;8.93;;
18796;SDS011;9526;52.612;13.300;2023-04-24T00:13:19;12.20;;;8.50;;
18796;SDS011;9526;52.612;13.300;2023-04-24T00:15:42;11.98;;;8.57;;
18796;SDS011;9526;52.612;13.300;2023-04-24T00:18:06;10.13;;;8.23;;
18796;SDS011;9526;52.612;13.300;2023-04-24T00:20:30;13.23;;;8.25;;
18796;SDS011;9526;52.612;13.300;2023-04-24T00:22:54;14.40;;;8.73;;
18796;SDS011;9526;52.612;13.300;2023-04-24T00:25:20;12.00;;;8.80;;
18796;SDS011;9526;52.612;13.300;2023-04-24T00:27:43;13.85;;;8.35;;
18796;SDS011;9526;52.612;13.300;2023-04-24T00:30:07;11.88;;;8.85;;
18796;SDS011;9526;52.612;13.300;2023-04-24T00:32:32;12.27;;;8.63;;
18796;SDS011;9526;52.612;13.300;2023-04-24T00:34:56;12.98;;;8.85;;
18796;SDS011;9526;52.612;13.300;2023-04-24T00:37:19;11.68;;;8.88;;
18796;SDS011;9526;52.612;13.300;2023-04-24T00:39:43;11.93;;;8.80;;
18796;SDS011;9526;52.612;13.300;2023-04-24T00:42:08;11.38;;;8.13;;
18796;SDS011;9526;52.612;13.300;2023-04-24T00:44:32;12.15;;;8.60;;
18796;SDS011;9526;52.612;13.300;2023-04-24T00:46:56;12.82;;;8.80;;
18796;SDS011;9526;52.612;13.300;2023-04-24T00:49:22;12.00;;;8.90;;
18796;SDS011;9526;52.612;13.300;2023-04-24T00:51:45;11.63;;;8.65;;
18796;SDS011;9526;52.612;13.300;2023-04-24T00:54:10;10.75;;;8.60;;
18796;SDS011;9526;52.612;13.300;2023-04-24T00:56:34;14.32;;;9.25;;
18796;SDS011;9526;52.612;13.300;2023-04-24T00:58:59;14.18;;;8.73;;
18796;SDS011;9526;52.612;13.300;2023-04-24T01:01:23;12.25;;;8.95;;
18796;SDS011;9526;52.612;13.300;2023-04-24T01:03:47;14.88;;;8.93;;
18796;SDS011;9526;52.612;13.300;2023-04-24T01:06:14;13.48;;;9.48;;
18796;SDS011;9526;52.612;13.300;2023-04-24T01:08:38;13.73;;;9.15;;
18796;SDS011;9526;52.612;13.300;2023-04-24T01:11:04;12.05;;;9.07;;
18796;SDS011;9526;52.612;13.300;2023-04-24T01:13:28;11.65;;;9.15;;
18796;SDS011;9526;52.612;13.300;2023-04-24T01:15:53;13.80;;;9.32;;
18796;SDS011;9526;52.612;13.300;2023-04-24T01:18:16;14.32;;;9.40;;
18796;SDS011;9526;52.612;13.300;2023-04-24T01:20:40;14.07;;;9.10;;
18796;SDS011;9526;52.612;13.300;2023-04-24T01:23:08;12.40;;;9.40;;
18796;SDS011;9526;52.612;13.300;2023-04-24T01:25:32;10.98;;;8.88;;
18796;SDS011;9526;52.612;13.300;2023-04-24T01:27:56;13.15;;;9.23;;
18796;SDS011;9526;52.612;13.300;2023-04-24T01:30:19;14.65;;;9.43;;
18796;SDS011;9526;52.612;13.300;2023-04-24T01:32:44;23.30;;;9.60;;
18796;SDS011;9526;52.612;13.300;2023-04-24T01:35:08;13.32;;;9.77;;
18796;SDS011;9526;52.612;13.300;2023-04-24T01:37:32;12.57;;;9.55;;
18796;SDS011;9526;52.612;13.300;2023-04-24T01:40:00;16.95;;;10.35;;
18796;SDS011;9526;52.612;13.300;2023-04-24T01:42:25;14.85;;;10.05;;
18796;SDS011;9526;52.612;13.300;2023-04-24T01:44:49;18.17;;;10.80;;
18796;SDS011;9526;52.612;13.300;2023-04-24T01:47:13;13.00;;;10.15;;
18796;SDS011;9526;52.612;13.300;2023-04-24T01:49:37;18.75;;;10.98;;
18796;SDS011;9526;52.612;13.300;2023-04-24T01:52:02;15.85;;;10.93;;
18796;SDS011;9526;52.612;13.300;2023-04-24T01:54:26;16.23;;;11.48;;
18796;SDS011;9526;52.612;13.300;2023-04-24T01:56:51;16.92;;;11.50;;
18796;SDS011;9526;52.612;13.300;2023-04-24T01:59:15;19.67;;;11.63;;
18796;SDS011;9526;52.612;13.300;2023-04-24T02:01:40;17.60;;;11.68;;
18796;SDS011;9526;52.612;13.300;2023-04-24T02:04:04;19.80;;;11.70;;
18796;SDS011;9526;52.612;13.300;2023-04-24T02:06:29;16.25;;;11.38;;
18796;SDS011;9526;52.612;13.300;2023-04-24T02:08:54;17.08;;;11.95;;
18796;SDS011;9526;52.612;13.300;2023-04-24T02:11:18;18.38;;;12.07;;
18796;SDS011;9526;52.612;13.300;2023-04-24T02:13:43;18.90;;;12.30;;
18796;SDS011;9526;52.612;13.300;2023-04-24T02:16:07;19.48;;;12.52;;
18796;SDS011;9526;52.612;13.300;2023-04-24T02:18:31;19.13;;;11.95;;
18796;SDS011;9526;52.612;13.300;2023-04-24T02:20:54;18.05;;;12.38;;
18796;SDS011;9526;52.612;13.300;2023-04-24T02:23:18;19.08;;;12.50;;
18796;SDS011;9526;52.612;13.300;2023-04-24T02:25:42;21.25;;;12.70;;
18796;SDS011;9526;52.612;13.300;2023-04-24T02:28:05;18.77;;;12.35;;
18796;SDS011;9526;52.612;13.300;2023-04-24T02:30:30;20.40;;;11.70;;
18796;SDS011;9526;52.612;13.300;2023-04-24T02:32:54;18.05;;;12.15;;
18796;SDS011;9526;52.612;13.300;2023-04-24T02:35:17;18.50;;;12.15;;
18796;SDS011;9526;52.612;13.300;2023-04-24T02:37:41;23.60;;;13.30;;
18796;SDS011;9526;52.612;13.300;2023-04-24T02:40:06;19.48;;;12.38;;
18796;SDS011;9526;52.612;13.300;2023-04-24T02:42:31;17.75;;;13.07;;
18796;SDS011;9526;52.612;13.300;2023-04-24T02:44:55;18.17;;;12.02;;
18796;SDS011;9526;52.612;13.300;2023-04-24T02:47:20;18.95;;;12.63;;
18796;SDS011;9526;52.612;13.300;2023-04-24T02:49:44;20.48;;;13.32;;
18796;SDS011;9526;52.612;13.300;2023-04-24T02:52:07;20.38;;;12.38;;
18796;SDS011;9526;52.612;13.300;2023-04-24T02:54:31;21.15;;;14.25;;
18796;SDS011;9526;52.612;13.300;2023-04-24T02:56:55;21.50;;;14.13;;
18796;SDS011;9526;52.612;13.300;2023-04-24T02:59:19;19.70;;;13.20;;
18796;SDS011;9526;52.612;13.300;2023-04-24T03:01:43;20.95;;;13.23;;
18796;SDS011;9526;52.612;13.300;2023-04-24T03:04:08;21.27;;;13.80;;
18796;SDS011;9526;52.612;13.300;2023-04-24T03:06:35;21.42;;;13.68;;
18796;SDS011;9526;52.612;13.300;2023-04-24T03:08:58;17.65;;;12.52;;
18796;SDS011;9526;52.612;13.300;2023-04-24T03:11:22;18.58;;;12.45;;
18796;SDS011;9526;52.612;13.300;2023-04-24T03:13:46;17.25;;;12.57;;
18796;SDS011;9526;52.612;13.300;2023-04-24T03:16:09;19.83;;;12.63;;
18796;SDS011;9526;52.612;13.300;2023-04-24T03:18:33;19.10;;;12.73;;
18796;SDS011;9526;52.612;13.300;2023-04-24T03:20:59;21.90;;;12.80;;
18796;SDS011;9526;52.612;13.300;2023-04-24T03:23:25;19.77;;;12.90;;
18796;SDS011;9526;52.612;13.300;2023-04-24T03:25:49;18.27;;;12.85;;
18796;SDS011;9526;52.612;13.300;2023-04-24T03:28:14;21.67;;;13.27;;
18796;SDS011;9526;52.612;13.300;2023-04-24T03:30:42;17.70;;;12.90;;
18796;SDS011;9526;52.612;13.300;2023-04-24T03:33:06;20.20;;;13.48;;
18796;SDS011;9526;52.612;13.300;2023-04-24T03:35:37;16.33;;;12.98;;
18796;SDS011;9526;52.612;13.300;2023-04-24T03:38:05;24.45;;;13.63;;
18796;SDS011;9526;52.612;13.300;2023-04-24T03:40:38;22.25;;;13.45;;
18796;SDS011;9526;52.612;13.300;2023-04-24T03:43:16;21.08;;;14.07;;
18796;SDS011;9526;52.612;13.300;2023-04-24T03:45:40;21.50;;;14.35;;
18796;SDS011;9526;52.612;13.300;2023-04-24T03:48:05;19.33;;;12.68;;
18796;SDS011;9526;52.612;13.300;2023-04-24T03:50:29;19.33;;;13.32;;
18796;SDS011;9526;52.612;13.300;2023-04-24T03:52:53;18.80;;;13.13;;
18796;SDS011;9526;52.612;13.300;2023-04-24T03:55:29;20.02;;;13.85;;
18796;SDS011;9526;52.612;13.300;2023-04-24T03:57:53;18.38;;;13.13;;
18796;SDS011;9526;52.612;13.300;2023-04-24T04:00:16;20.70;;;14.05;;
18796;SDS011;9526;52.612;13.300;2023-04-24T04:02:46;19.58;;;13.40;;
18796;SDS011;9526;52.612;13.300;2023-04-24T04:05:10;17.52;;;13.45;;
18796;SDS011;9526;52.612;13.300;2023-04-24T04:07:35;17.90;;;12.98;;
18796;SDS011;9526;52.612;13.300;2023-04-24T04:09:59;17.55;;;12.07;;
18796;SDS011;9526;52.612;13.300;2023-04-24T04:12:24;18.17;;;12.98;;
18796;SDS011;9526;52.612;13.300;2023-04-24T04:14:48;19.60;;;13.10;;
18796;SDS011;9526;52.612;13.300;2023-04-24T04:17:12;18.13;;;12.63;;
18796;SDS011;9526;52.612;13.300;2023-04-24T04:19:36;21.35;;;12.10;;
18796;SDS011;9526;52.612;13.300;2023-04-24T04:22:00;18.67;;;13.05;;
18796;SDS011;9526;52.612;13.300;2023-04-24T04:24:32;16.25;;;11.95;;
18796;SDS011;9526;52.612;13.300;2023-04-24T04:27:00;16.02;;;11.52;;
18796;SDS011;9526;52.612;13.300;2023-04-24T04:29:30;18.52;;;11.63;;
18796;SDS011;9526;52.612;13.300;2023-04-24T04:31:55;14.32;;;10.88;;
18796;SDS011;9526;52.612;13.300;2023-04-24T04:34:19;17.73;;;11.07;;
18796;SDS011;9526;52.612;13.300;2023-04-24T04:36:45;14.85;;;10.77;;
18796;SDS011;9526;52.612;13.300;2023-04-24T04:39:25;14.27;;;10.82;;
18796;SDS011;9526;52.612;13.300;2023-04-24T04:41:58;14.90;;;10.13;;
18796;SDS011;9526;52.612;13.300;2023-04-24T04:44:30;16.58;;;10.43;;
18796;SDS011;9526;52.612;13.300;2023-04-24T04:46:54;16.92;;;11.38;;
18796;SDS011;9526;52.612;13.300;2023-04-24T04:49:24;12.88;;;10.50;;
18796;SDS011;9526;52.612;13.300;2023-04-24T04:51:50;13.48;;;10.40;;
18796;SDS011;9526;52.612;13.300;2023-04-24T04:54:15;13.50;;;10.05;;
18796;SDS011;9526;52.612;13.300;2023-04-24T04:56:39;14.13;;;9.82;;
18796;SDS011;9526;52.612;13.300;2023-04-24T04:59:04;14.00;;;9.65;;
18796;SDS011;9526;52.612;13.300;2023-04-24T05:01:30;17.33;;;9.93;;
18796;SDS011;9526;52.612;13.300;2023-04-24T05:03:54;12.93;;;9.35;;
18796;SDS011;9526;52.612;13.300;2023-04-24T05:06:18;12.18;;;9.77;;
18796;SDS011;9526;52.612;13.300;2023-04-24T05:08:45;14.38;;;9.15;;
18796;SDS011;9526;52.612;13.300;2023-04-24T05:11:26;15.40;;;8.93;;
18796;SDS011;9526;52.612;13.300;2023-04-24T05:13:52;11.25;;;9.00;;
18796;SDS011;9526;52.612;13.300;2023-04-24T05:16:23;12.32;;;9.25;;
18796;SDS011;9526;52.612;13.300;2023-04-24T05:18:50;10.98;;;8.48;;
18796;SDS011;9526;52.612;13.300;2023-04-24T05:21:19;9.38;;;8.18;;
18796;SDS011;9526;52.612;13.300;2023-04-24T05:23:45;10.32;;;8.48;;
18796;SDS011;9526;52.612;13.300;2023-04-24T05:26:15;10.98;;;7.57;;
18796;SDS011;9526;52.612;13.300;2023-04-24T05:28:39;12.05;;;7.38;;
18796;SDS011;9526;52.612;13.300;2023-04-24T05:31:05;9.85;;;6.70;;
18796;SDS011;9526;52.612;13.300;2023-04-24T05:33:29;9.63;;;7.15;;
18796;SDS011;9526;52.612;13.300;2023-04-24T05:35:55;9.32;;;6.50;;
18796;SDS011;9526;52.612;13.300;2023-04-24T05:38:22;7.05;;;5.80;;
18796;SDS011;9526;52.612;13.300;2023-04-24T05:40:45;7.72;;;5.70;;
18796;SDS011;9526;52.612;13.300;2023-04-24T05:43:09;9.13;;;5.40;;
18796;SDS011;9526;52.612;13.300;2023-04-24T05:45:32;6.00;;;5.40;;
18796;SDS011;9526;52.612;13.300;2023-04-24T05:47:57;6.07;;;5.03;;
18796;SDS011;9526;52.612;13.300;2023-04-24T05:50:21;6.93;;;5.43;;
18796;SDS011;9526;52.612;13.300;2023-04-24T05:52:46;8.73;;;5.40;;
18796;SDS011;9526;52.612;13.300;2023-04-24T05:55:19;7.57;;;4.53;;
18796;SDS011;9526;52.612;13.300;2023-04-24T05:57:43;5.72;;;4.82;;
18796;SDS011;9526;52.612;13.300;2023-04-24T06:00:07;6.20;;;4.93;;
18796;SDS011;9526;52.612;13.300;2023-04-24T06:02:44;5.80;;;4.97;;
18796;SDS011;9526;52.612;13.300;2023-04-24T06:05:08;6.47;;;4.80;;
18796;SDS011;9526;52.612;13.300;2023-04-24T06:07:32;10.05;;;4.30;;
18796;SDS011;9526;52.612;13.300;2023-04-24T06:09:59;7.15;;;4.28;;
18796;SDS011;9526;52.612;13.300;2023-04-24T06:12:28;4.68;;;3.97;;
18796;SDS011;9526;52.612;13.300;2023-04-24T06:14:56;5.75;;;3.38;;
18796;SDS011;9526;52.612;13.300;2023-04-24T06:17:40;5.82;;;3.28;;
18796;SDS011;9526;52.612;13.300;2023-04-24T06:20:04;4.78;;;3.50;;
18796;SDS011;9526;52.612;13.300;2023-04-24T06:22:29;4.13;;;2.92;;
18796;SDS011;9526;52.612;13.300;2023-04-24T06:24:53;3.50;;;3.20;;
18796;SDS011;9526;52.612;13.300;2023-04-24T06:27:20;4.10;;;3.22;;
18796;SDS011;9526;52.612;13.300;2023-04-24T06:29:43;4.63;;;2.92;;
18796;SDS011;9526;52.612;13.300;2023-04-24T06:32:07;3.13;;;2.42;;
18796;SDS011;9526;52.612;13.300;2023-04-24T06:34:30;5.22;;;2.80;;
18796;SDS011;9526;52.612;13.300;2023-04-24T06:36:55;3.92;;;2.47;;
18796;SDS011;9526;52.612;13.300;2023-04-24T06:39:19;2.38;;;2.17;;
18796;SDS011;9526;52.612;13.300;2023-04-24T06:41:43;5.80;;;2.60;;
18796;SDS011;9526;52.612;13.300;2023-04-24T06:44:14;1.83;;;1.73;;
18796;SDS011;9526;52.612;13.300;2023-04-24T06:46:38;2.13;;;1.88;;
18796;SDS011;9526;52.612;13.300;2023-04-24T06:49:02;1.85;;;1.70;;
18796;SDS011;9526;52.612;13.300;2023-04-24T06:51:26;2.60;;;1.58;;
18796;SDS011;9526;52.612;13.300;2023-04-24T06:53:50;4.15;;;1.50;;
18796;SDS011;9526;52.612;13.300;2023-04-24T06:56:15;2.65;;;1.60;;
18796;SDS011;9526;52.612;13.300;2023-04-24T06:58:38;2.78;;;1.40;;
18796;SDS011;9526;52.612;13.300;2023-04-24T07:01:03;2.60;;;1.25;;
18796;SDS011;9526;52.612;13.300;2023-04-24T07:03:28;1.95;;;1.20;;
18796;SDS011;9526;52.612;13.300;2023-04-24T07:05:53;2.83;;;1.15;;
18796;SDS011;9526;52.612;13.300;2023-04-24T07:08:19;1.50;;;1.00;;
18796;SDS011;9526;52.612;13.300;2023-04-24T07:10:43;1.00;;;1.00;;
18796;SDS011;9526;52.612;13.300;2023-04-24T07:13:07;1.52;;;1.13;;
18796;SDS011;9526;52.612;13.300;2023-04-24T07:15:31;1.67;;;1.00;;
18796;SDS011;9526;52.612;13.300;2023-04-24T07:17:56;0.90;;;0.90;;
18796;SDS011;9526;52.612;13.300;2023-04-24T07:20:20;4.93;;;1.17;;
18796;SDS011;9526;52.612;13.300;2023-04-24T07:22:44;1.38;;;1.10;;
18796;SDS011;9526;52.612;13.300;2023-04-24T07:25:08;2.13;;;0.85;;
18796;SDS011;9526;52.612;13.300;2023-04-24T07:27:32;1.33;;;1.20;;
18796;SDS011;9526;52.612;13.300;2023-04-24T07:29:56;1.40;;;1.00;;
18796;SDS011;9526;52.612;13.300;2023-04-24T07:32:20;1.45;;;1.10;;
18796;SDS011;9526;52.612;13.300;2023-04-24T07:34:45;3.30;;;1.10;;
18796;SDS011;9526;52.612;13.300;2023-04-24T07:37:08;6.05;;;1.15;;
18796;SDS011;9526;52.612;13.300;2023-04-24T07:39:32;0.82;;;0.77;;
18796;SDS011;9526;52.612;13.300;2023-04-24T07:41:55;0.90;;;0.80;;
18796;SDS011;9526;52.612;13.300;2023-04-24T07:44:20;1.55;;;1.10;;
18796;SDS011;9526;52.612;13.300;2023-04-24T07:46:44;1.23;;;1.10;;
18796;SDS011;9526;52.612;13.300;2023-04-24T07:49:07;1.35;;;0.80;;
18796;SDS011;9526;52.612;13.300;2023-04-24T07:51:36;2.33;;;0.95;;
18796;SDS011;9526;52.612;13.300;2023-04-24T07:54:00;1.50;;;0.93;;
18796;SDS011;9526;52.612;13.300;2023-04-24T07:56:24;1.60;;;1.00;;
18796;SDS011;9526;52.612;13.300;2023-04-24T07:58:48;0.80;;;0.80;;
18796;SDS011;9526;52.612;13.300;2023-04-24T08:01:12;0.90;;;0.90;;
18796;SDS011;9526;52.612;13.300;2023-04-24T08:03:35;1.67;;;0.70;;
18796;SDS011;9526;52.612;13.300;2023-04-24T08:05:59;3.40;;;0.85;;
18796;SDS011;9526;52.612;13.300;2023-04-24T08:08:24;1.00;;;0.80;;
18796;SDS011;9526;52.612;13.300;2023-04-24T08:10:48;1.23;;;1.05;;
18796;SDS011;9526;52.612;13.300;2023-04-24T08:13:12;1.80;;;0.90;;
18796;SDS011;9526;52.612;13.300;2023-04-24T08:15:36;1.20;;;0.90;;
18796;SDS011;9526;52.612;13.300;2023-04-24T08:17:59;2.03;;;0.85;;
18796;SDS011;9526;52.612;13.300;2023-04-24T08:20:23;0.65;;;0.57;;
18796;SDS011;9526;52.612;13.300;2023-04-24T08:22:47;1.90;;;0.60;;
18796;SDS011;9526;52.612;13.300;2023-04-24T08:25:12;1.25;;;0.70;;
18796;SDS011;9526;52.612;13.300;2023-04-24T08:27:36;1.02;;;0.95;;
18796;SDS011;9526;52.612;13.300;2023-04-24T08:30:00;1.13;;;0.85;;
18796;SDS011;9526;52.612;13.300;2023-04-24T08:32:24;1.52;;;1.08;;
18796;SDS011;9526;52.612;13.300;2023-04-24T08:34:49;1.60;;;0.70;;
18796;SDS011;9526;52.612;13.300;2023-04-24T08:37:14;0.75;;;0.75;;
18796;SDS011;9526;52.612;13.300;2023-04-24T08:39:37;1.00;;;0.80;;
18796;SDS011;9526;52.612;13.300;2023-04-24T08:42:03;0.80;;;0.63;;
18796;SDS011;9526;52.612;13.300;2023-04-24T08:44:29;2.58;;;0.85;;
18796;SDS011;9526;52.612;13.300;2023-04-24T08:46:55;2.72;;;0.90;;
18796;SDS011;9526;52.612;13.300;2023-04-24T08:49:19;1.10;;;0.85;;
18796;SDS011;9526;52.612;13.300;2023-04-24T08:51:43;1.02;;;0.80;;
18796;SDS011;9526;52.612;13.300;2023-04-24T08:54:08;0.93;;;0.77;;
18796;SDS011;9526;52.612;13.300;2023-04-24T08:56:32;3.70;;;0.88;;
18796;SDS011;9526;52.612;13.300;2023-04-24T08:59:00;0.95;;;0.80;;
18796;SDS011;9526;52.612;13.300;2023-04-24T09:01:24;1.80;;;0.80;;
18796;SDS011;9526;52.612;13.300;2023-04-24T09:03:50;2.22;;;0.80;;
18796;SDS011;9526;52.612;13.300;2023-04-24T09:06:16;2.58;;;0.80;;
18796;SDS011;9526;52.612;13.300;2023-04-24T09:08:42;2.47;;;0.80;;
18796;SDS011;9526;52.612;13.300;2023-04-24T09:11:08;0.80;;;0.80;;
18796;SDS011;9526;52.612;13.300;2023-04-24T09:13:32;0.80;;;0.80;;
18796;SDS011;9526;52.612;13.300;2023-04-24T09:15:58;3.80;;;1.00;;
18796;SDS011;9526;52.612;13.300;2023-04-24T09:18:22;1.02;;;0.70;;
18796;SDS011;9526;52.612;13.300;2023-04-24T09:20:59;1.10;;;0.82;;
18796;SDS011;9526;52.612;13.300;2023-04-24T09:23:25;1.33;;;0.77;;
18796;SDS011;9526;52.612;13.300;2023-04-24T09:25:53;1.52;;;0.80;;
18796;SDS011;9526;52.612;13.300;2023-04-24T09:28:18;0.80;;;0.80;;
18796;SDS011;9526;52.612;13.300;2023-04-24T09:30:42;1.10;;;0.82;;
18796;SDS011;9526;52.612;13.300;2023-04-24T09:33:14;0.80;;;0.80;;
18796;SDS011;9526;52.612;13.300;2023-04-24T09:35:40;4.53;;;1.10;;
18796;SDS011;9526;52.612;13.300;2023-04-24T09:38:05;1.83;;;0.95;;
18796;SDS011;9526;52.612;13.300;2023-04-24T09:40:29;1.20;;;0.90;;
18796;SDS011;9526;52.612;13.300;2023-04-24T09:42:53;2.33;;;0.70;;
18796;SDS011;9526;52.612;13.300;2023-04-24T09:45:19;2.47;;;1.10;;
18796;SDS011;9526;52.612;13.300;2023-04-24T09:47:43;1.80;;;0.90;;
18796;SDS011;9526;52.612;13.300;2023-04-24T09:50:13;2.20;;;0.90;;
18796;SDS011;9526;52.612;13.300;2023-04-24T09:52:39;1.10;;;0.90;;
18796;SDS011;9526;52.612;13.300;2023-04-24T09:55:10;1.70;;;0.80;;
18796;SDS011;9526;52.612;13.300;2023-04-24T09:57:35;1.63;;;0.77;;
18796;SDS011;9526;52.612;13.300;2023-04-24T09:59:58;3.00;;;1.20;;
18796;SDS011;9526;52.612;13.300;2023-04-24T10:02:31;2.03;;;1.10;;
18796;SDS011;9526;52.612;13.300;2023-04-24T10:04:56;0.88;;;0.88;;
18796;SDS011;9526;52.612;13.300;2023-04-24T10:07:23;1.88;;;0.90;;
18796;SDS011;9526;52.612;13.300;2023-04-24T10:09:49;1.10;;;1.00;;
18796;SDS011;9526;52.612;13.300;2023-04-24T10:12:12;3.78;;;1.08;;
18796;SDS011;9526;52.612;13.300;2023-04-24T10:14:37;1.25;;;0.90;;
18796;SDS011;9526;52.612;13.300;2023-04-24T10:17:04;1.33;;;1.10;;
18796;SDS011;9526;52.612;13.300;2023-04-24T10:19:29;2.33;;;1.13;;
18796;SDS011;9526;52.612;13.300;2023-04-24T10:21:53;3.15;;;0.90;;
18796;SDS011;9526;52.612;13.300;2023-04-24T10:24:20;2.38;;;0.90;;
18796;SDS011;9526;52.612;13.300;2023-04-24T10:26:44;0.95;;;0.90;;
18796;SDS011;9526;52.612;13.300;2023-04-24T10:29:10;2.80;;;1.00;;
18796;SDS011;9526;52.612;13.300;2023-04-24T10:31:37;1.60;;;1.00;;
18796;SDS011;9526;52.612;13.300;2023-04-24T10:34:01;5.82;;;1.10;;
18796;SDS011;9526;52.612;13.300;2023-04-24T10:36:26;1.40;;;0.98;;
18796;SDS011;9526;52.612;13.300;2023-04-24T10:38:54;3.05;;;1.00;;
18796;SDS011;9526;52.612;13.300;2023-04-24T10:41:21;2.30;;;1.00;;
18796;SDS011;9526;52.612;13.300;2023-04-24T10:43:58;5.15;;;0.90;;
18796;SDS011;9526;52.612;13.300;2023-04-24T10:46:28;3.00;;;0.90;;
18796;SDS011;9526;52.612;13.300;2023-04-24T10:48:53;1.77;;;0.90;;
18796;SDS011;9526;52.612;13.300;2023-04-24T10:51:17;1.23;;;0.80;;
18796;SDS011;9526;52.612;13.300;2023-04-24T10:53:44;1.63;;;0.90;;
18796;SDS011;9526;52.612;13.300;2023-04-24T10:56:09;2.58;;;1.15;;
18796;SDS011;9526;52.612;13.300;2023-04-24T10:58:38;2.00;;;1.00;;
18796;SDS011;9526;52.612;13.300;2023-04-24T11:01:06;1.58;;;0.80;;
18796;SDS011;9526;52.612;13.300;2023-04-24T11:03:31;2.10;;;1.00;;
18796;SDS011;9526;52.612;13.300;2023-04-24T11:05:58;1.55;;;1.00;;
18796;SDS011;9526;52.612;13.300;2023-04-24T11:08:25;2.83;;;0.80;;
18796;SDS011;9526;52.612;13.300;2023-04-24T11:10:56;1.40;;;1.00;;
18796;SDS011;9526;52.612;13.300;2023-04-24T11:13:27;0.85;;;0.77;;
18796;SDS011;9526;52.612;13.300;2023-04-24T11:16:26;1.08;;;0.90;;
18796;SDS011;9526;52.612;13.300;2023-04-24T11:18:59;2.60;;;1.35;;
18796;SDS011;9526;52.612;13.300;2023-04-24T11:21:25;2.03;;;0.90;;
18796;SDS011;9526;52.612;13.300;2023-04-24T11:23:49;4.45;;;1.02;;
18796;SDS011;9526;52.612;13.300;2023-04-24T11:26:17;1.02;;;0.88;;
18796;SDS011;9526;52.612;13.300;2023-04-24T11:28:46;1.35;;;1.20;;
18796;SDS011;9526;52.612;13.300;2023-04-24T11:31:35;2.92;;;1.30;;
18796;SDS011;9526;52.612;13.300;2023-04-24T11:34:05;1.92;;;1.05;;
18796;SDS011;9526;52.612;13.300;2023-04-24T11:36:31;1.10;;;0.80;;
18796;SDS011;9526;52.612;13.300;2023-04-24T11:38:55;1.27;;;1.08;;
18796;SDS011;9526;52.612;13.300;2023-04-24T11:41:19;1.55;;;0.77;;
18796;SDS011;9526;52.612;13.300;2023-04-24T11:43:43;2.17;;;1.10;;
18796;SDS011;9526;52.612;13.300;2023-04-24T11:46:08;1.55;;;1.00;;
18796;SDS011;9526;52.612;13.300;2023-04-24T11:48:35;1.77;;;1.27;;
18796;SDS011;9526;52.612;13.300;2023-04-24T11:51:01;3.75;;;1.20;;
18796;SDS011;9526;52.612;13.300;2023-04-24T11:53:25;2.53;;;1.30;;
18796;SDS011;9526;52.612;13.300;2023-04-24T11:55:48;2.53;;;1.20;;
18796;SDS011;9526;52.612;13.300;2023-04-24T11:58:12;1.25;;;1.02;;
18796;SDS011;9526;52.612;13.300;2023-04-24T12:00:36;1.48;;;0.93;;
18796;SDS011;9526;52.612;13.300;2023-04-24T12:03:04;1.48;;;1.10;;
18796;SDS011;9526;52.612;13.300;2023-04-24T12:05:30;1.50;;;1.02;;
18796;SDS011;9526;52.612;13.300;2023-04-24T12:07:54;1.08;;;0.90;;
18796;SDS011;9526;52.612;13.300;2023-04-24T12:10:19;1.40;;;1.00;;
18796;SDS011;9526;52.612;13.300;2023-04-24T12:12:43;1.73;;;0.88;;
18796;SDS011;9526;52.612;13.300;2023-04-24T12:15:09;1.52;;;0.80;;
18796;SDS011;9526;52.612;13.300;2023-04-24T12:17:34;3.70;;;1.08;;
18796;SDS011;9526;52.612;13.300;2023-04-24T12:19:59;2.35;;;0.95;;
18796;SDS011;9526;52.612;13.300;2023-04-24T12:22:26;2.72;;;0.90;;
18796;SDS011;9526;52.612;13.300;2023-04-24T12:24:57;2.65;;;1.23;;
18796;SDS011;9526;52.612;13.300;2023-04-24T12:27:23;2.15;;;1.38;;
18796;SDS011;9526;52.612;13.300;2023-04-24T12:29:51;4.22;;;1.27;;
18796;SDS011;9526;52.612;13.300;2023-04-24T12:32:16;3.58;;;1.10;;
18796;SDS011;9526;52.612;13.300;2023-04-24T12:34:39;3.17;;;1.23;;
18796;SDS011;9526;52.612;13.300;2023-04-24T12:37:09;1.45;;;1.00;;
18796;SDS011;9526;52.612;13.300;2023-04-24T12:39:34;3.92;;;1.10;;
18796;SDS011;9526;52.612;13.300;2023-04-24T12:41:58;0.82;;;0.82;;
18796;SDS011;9526;52.612;13.300;2023-04-24T12:44:28;1.08;;;0.93;;
18796;SDS011;9526;52.612;13.300;2023-04-24T12:46:53;4.65;;;0.90;;
18796;SDS011;9526;52.612;13.300;2023-04-24T12:49:17;1.40;;;0.80;;
18796;SDS011;9526;52.612;13.300;2023-04-24T12:51:41;2.05;;;0.90;;
18796;SDS011;9526;52.612;13.300;2023-04-24T12:54:04;2.85;;;1.00;;
18796;SDS011;9526;52.612;13.300;2023-04-24T12:56:30;0.73;;;0.73;;
18796;SDS011;9526;52.612;13.300;2023-04-24T12:58:53;1.65;;;0.95;;
18796;SDS011;9526;52.612;13.300;2023-04-24T13:01:17;1.30;;;0.85;;
18796;SDS011;9526;52.612;13.300;2023-04-24T13:03:41;0.95;;;0.80;;
18796;SDS011;9526;52.612;13.300;2023-04-24T13:06:05;4.30;;;0.88;;
18796;SDS011;9526;52.612;13.300;2023-04-24T13:08:29;2.63;;;1.02;;
18796;SDS011;9526;52.612;13.300;2023-04-24T13:10:52;1.17;;;0.98;;
18796;SDS011;9526;52.612;13.300;2023-04-24T13:13:17;1.23;;;1.00;;
18796;SDS011;9526;52.612;13.300;2023-04-24T13:15:41;2.67;;;1.10;;
18796;SDS011;9526;52.612;13.300;2023-04-24T13:18:04;2.20;;;0.90;;
18796;SDS011;9526;52.612;13.300;2023-04-24T13:20:28;2.58;;;1.10;;
18796;SDS011;9526;52.612;13.300;2023-04-24T13:22:52;1.80;;;0.90;;
18796;SDS011;9526;52.612;13.300;2023-04-24T13:25:16;1.38;;;1.10;;
18796;SDS011;9526;52.612;13.300;2023-04-24T13:27:41;1.92;;;1.00;;
18796;SDS011;9526;52.612;13.300;2023-04-24T13:30:07;1.27;;;1.10;;
18796;SDS011;9526;52.612;13.300;2023-04-24T13:32:32;2.45;;;1.35;;
18796;SDS011;9526;52.612;13.300;2023-04-24T13:34:57;2.88;;;1.30;;
18796;SDS011;9526;52.612;13.300;2023-04-24T13:37:20;4.05;;;1.60;;
18796;SDS011;9526;52.612;13.300;2023-04-24T13:39:44;1.40;;;1.00;;
18796;SDS011;9526;52.612;13.300;2023-04-24T13:42:08;2.08;;;1.10;;
18796;SDS011;9526;52.612;13.300;2023-04-24T13:44:32;3.35;;;1.00;;
18796;SDS011;9526;52.612;13.300;2023-04-24T13:46:57;1.80;;;1.10;;
18796;SDS011;9526;52.612;13.300;2023-04-24T13:49:21;0.90;;;0.90;;
18796;SDS011;9526;52.612;13.300;2023-04-24T13:51:47;1.55;;;1.10;;
18796;SDS011;9526;52.612;13.300;2023-04-24T13:54:11;2.00;;;1.20;;
18796;SDS011;9526;52.612;13.300;2023-04-24T13:56:34;4.38;;;1.30;;
18796;SDS011;9526;52.612;13.300;2023-04-24T13:58:58;1.58;;;1.02;;
18796;SDS011;9526;52.612;13.300;2023-04-24T14:01:22;2.80;;;1.30;;
18796;SDS011;9526;52.612;13.300;2023-04-24T14:03:47;2.30;;;1.30;;
18796;SDS011;9526;52.612;13.300;2023-04-24T14:06:12;1.95;;;1.10;;
18796;SDS011;9526;52.612;13.300;2023-04-24T14:08:36;1.45;;;1.00;;
18796;SDS011;9526;52.612;13.300;2023-04-24T14:10:59;2.33;;;1.05;;
18796;SDS011;9526;52.612;13.300;2023-04-24T14:13:25;2.78;;;1.13;;
18796;SDS011;9526;52.612;13.300;2023-04-24T14:15:49;2.00;;;1.00;;
18796;SDS011;9526;52.612;13.300;2023-04-24T14:18:14;1.95;;;1.10;;
18796;SDS011;9526;52.612;13.300;2023-04-24T14:20:39;1.92;;;1.13;;
18796;SDS011;9526;52.612;13.300;2023-04-24T14:23:03;1.77;;;1.13;;
18796;SDS011;9526;52.612;13.300;2023-04-24T14:25:26;3.20;;;1.00;;
18796;SDS011;9526;52.612;13.300;2023-04-24T14:27:50;1.17;;;1.08;;
18796;SDS011;9526;52.612;13.300;2023-04-24T14:30:14;0.90;;;0.90;;